createdAt,value
2023-09-06T00:04:53.146Z,0
2023-09-06T00:09:57.218Z,0
2023-09-06T00:15:01.329Z,0
2023-09-06T00:20:05.505Z,0
2023-09-06T00:25:09.638Z,0
2023-09-06T00:30:13.778Z,0
2023-09-06T00:35:17.945Z,0
2023-09-06T00:40:22.117Z,0
2023-09-06T00:45:26.298Z,0
2023-09-06T00:50:30.444Z,0
2023-09-06T00:55:34.618Z,0
2023-09-06T01:00:38.830Z,0
2023-09-06T01:05:42.935Z,0
2023-09-06T01:10:47.099Z,0
2023-09-06T01:15:51.350Z,0
2023-09-06T01:20:55.380Z,0
2023-09-06T01:25:59.528Z,0
2023-09-06T01:31:03.858Z,0
2023-09-06T01:36:07.877Z,0
2023-09-06T01:41:12.069Z,0
2023-09-06T01:46:16.251Z,0
2023-09-06T01:51:20.339Z,0
2023-09-06T01:56:24.509Z,0
2023-09-06T02:01:28.799Z,0
2023-09-06T02:06:30.950Z,0
2023-09-06T02:11:35.181Z,0
2023-09-06T02:16:39.346Z,0
2023-09-06T02:21:43.581Z,0
2023-09-06T02:26:47.597Z,0
2023-09-06T02:31:51.859Z,0
2023-09-06T02:36:55.919Z,0
2023-09-06T02:42:00.124Z,0
2023-09-06T02:47:04.342Z,0
2023-09-06T02:52:08.423Z,0
2023-09-06T02:57:12.559Z,0
2023-09-06T03:02:16.804Z,0
2023-09-06T03:07:20.869Z,0
2023-09-06T03:12:25.255Z,0
2023-09-06T03:17:29.169Z,0
2023-09-06T03:22:33.406Z,0
2023-09-06T03:27:37.522Z,0
2023-09-06T03:32:41.703Z,0
2023-09-06T03:37:45.854Z,0
2023-09-06T03:42:50.007Z,0
2023-09-06T03:47:54.250Z,0
2023-09-06T03:52:58.367Z,0
2023-09-06T03:58:02.472Z,0
2023-09-06T04:03:06.710Z,0
2023-09-06T04:08:10.908Z,0
2023-09-06T04:13:14.977Z,0
2023-09-06T04:18:19.119Z,0
2023-09-06T04:23:23.261Z,0
2023-09-06T04:28:27.795Z,2
2023-09-06T04:33:31.609Z,7
2023-09-06T04:38:35.750Z,18
2023-09-06T04:43:39.878Z,39
2023-09-06T04:48:44.044Z,75
2023-09-06T04:53:48.228Z,128
2023-09-06T04:58:52.428Z,197
2023-09-06T05:03:56.703Z,280
2023-09-06T05:09:00.750Z,370
2023-09-06T05:14:04.870Z,460
2023-09-06T05:19:09.066Z,547
2023-09-06T05:24:13.177Z,629
2023-09-06T05:29:17.393Z,702
2023-09-06T05:34:21.521Z,770
2023-09-06T05:39:25.753Z,830
2023-09-06T05:44:29.843Z,883
2023-09-06T05:49:34.033Z,932
2023-09-06T05:54:38.143Z,976
2023-09-06T05:59:42.396Z,1020
2023-09-06T06:04:46.563Z,1062
2023-09-06T06:09:50.638Z,1102
2023-09-06T06:14:54.797Z,1133
2023-09-06T06:19:59.045Z,1161
2023-09-06T06:25:03.122Z,1186
2023-09-06T06:30:07.288Z,1210
2023-09-06T06:35:11.422Z,1235
2023-09-06T06:40:15.625Z,1255
2023-09-06T06:45:19.749Z,1274
2023-09-06T06:50:23.943Z,1289
2023-09-06T06:55:28.115Z,1307
2023-09-06T07:00:33.239Z,1324
2023-09-06T07:05:36.500Z,1334
2023-09-06T07:10:40.622Z,1345
2023-09-06T07:15:44.781Z,1355
2023-09-06T07:20:48.913Z,1366
2023-09-06T07:25:53.110Z,1375
2023-09-06T07:30:57.219Z,1385
2023-09-06T07:35:59.449Z,1393
2023-09-06T07:41:03.638Z,1398
2023-09-06T07:46:07.828Z,1402
2023-09-06T07:51:11.960Z,1407
2023-09-06T07:56:16.153Z,1413
2023-09-06T08:01:20.360Z,1420
2023-09-06T08:06:22.596Z,1425
2023-09-06T08:11:26.721Z,1429
2023-09-06T08:16:30.984Z,1428
2023-09-06T08:21:35.022Z,1430
2023-09-06T08:26:39.215Z,1426
2023-09-06T08:31:43.398Z,1425
2023-09-06T08:36:47.591Z,1425
2023-09-06T08:41:51.731Z,1429
2023-09-06T08:46:55.876Z,1429
2023-09-06T08:51:59.955Z,1429
2023-09-06T08:57:04.142Z,1430
2023-09-06T09:02:08.304Z,1431
2023-09-06T09:07:12.452Z,1430
2023-09-06T09:12:16.592Z,1430
2023-09-06T09:17:20.779Z,1428
2023-09-06T09:22:24.903Z,1430
2023-09-06T09:27:29.087Z,1435
2023-09-06T09:32:33.314Z,1441
2023-09-06T09:37:37.869Z,1445
2023-09-06T09:42:41.604Z,1448
2023-09-06T09:47:53.722Z,1455
2023-09-06T09:52:49.871Z,1461
2023-09-06T09:57:54.016Z,1467
2023-09-06T10:02:59.498Z,1476
2023-09-06T10:08:02.391Z,1479
2023-09-06T10:13:06.521Z,1485
2023-09-06T10:18:10.782Z,1489
2023-09-06T10:23:14.837Z,1489
2023-09-06T10:28:18.990Z,1493
2023-09-06T10:33:23.166Z,1493
2023-09-06T10:38:27.629Z,1495
2023-09-06T10:43:32.671Z,1505
2023-09-06T10:48:35.658Z,1500
2023-09-06T10:53:39.773Z,1508
2023-09-06T10:58:43.935Z,1500
2023-09-06T11:03:48.179Z,1515
2023-09-06T11:08:52.232Z,1522
2023-09-06T11:13:56.415Z,1525
2023-09-06T11:19:00.568Z,1531
2023-09-06T11:24:04.773Z,1536
2023-09-06T11:29:08.919Z,1541
2023-09-06T11:34:13.118Z,1559
2023-09-06T11:44:21.383Z,1589
2023-09-06T11:49:25.578Z,1605
2023-09-06T11:54:29.709Z,1612
2023-09-06T11:59:33.854Z,1621
2023-09-06T12:04:38.018Z,1634
2023-09-06T12:09:42.153Z,1642
2023-09-06T12:14:46.405Z,1653
2023-09-06T12:19:50.496Z,1660
2023-09-06T12:24:54.671Z,1675
2023-09-06T12:29:58.842Z,1683
2023-09-06T12:35:02.935Z,1699
2023-09-06T12:40:07.101Z,1704
2023-09-06T12:45:11.329Z,1721
2023-09-06T12:50:15.420Z,1739
2023-09-06T12:55:19.585Z,1752
2023-09-06T13:00:23.758Z,1755
2023-09-06T13:05:28.141Z,1778
2023-09-06T13:10:32.110Z,1794
2023-09-06T13:15:36.279Z,1802
2023-09-06T13:20:40.413Z,1805
2023-09-06T13:25:44.604Z,1813
2023-09-06T13:30:48.778Z,1842
2023-09-06T13:35:50.995Z,1870
2023-09-06T13:40:55.113Z,1928
2023-09-06T13:45:59.284Z,1953
2023-09-06T13:51:03.485Z,1953
2023-09-06T13:56:07.629Z,1977
2023-09-06T14:01:11.786Z,2061
2023-09-06T14:06:15.948Z,2135
2023-09-06T14:11:20.128Z,2165
2023-09-06T14:16:24.299Z,2140
2023-09-06T14:21:28.403Z,2115
2023-09-06T14:26:32.626Z,2086
2023-09-06T14:31:36.757Z,2055
2023-09-06T14:36:40.898Z,2099
2023-09-06T14:41:45.077Z,2177
2023-09-06T14:46:49.559Z,2213
2023-09-06T14:51:53.373Z,2211
2023-09-06T14:56:57.490Z,2295
2023-09-06T15:02:01.692Z,2319
2023-09-06T15:07:05.832Z,2342
2023-09-06T15:12:10.100Z,2481
2023-09-06T15:17:14.163Z,3319
2023-09-06T15:22:29.256Z,16687
2023-09-06T15:27:22.538Z,19992
2023-09-06T15:32:26.641Z,20467
2023-09-06T15:37:30.828Z,14321
2023-09-06T15:42:34.981Z,10370
2023-09-06T15:47:41.831Z,9428
2023-09-06T15:52:43.306Z,8385
2023-09-06T15:57:47.446Z,8271
2023-09-06T16:02:51.859Z,7761
2023-09-06T16:07:55.728Z,7446
2023-09-06T16:12:59.926Z,7240
2023-09-06T16:18:04.132Z,7585
2023-09-06T16:23:08.201Z,16560
2023-09-06T16:28:12.406Z,10618
2023-09-06T16:33:16.691Z,9115
2023-09-06T16:38:20.762Z,8019
2023-09-06T16:43:24.879Z,8259
2023-09-06T16:48:29.399Z,6988
2023-09-06T16:53:33.184Z,7236
2023-09-06T16:58:37.361Z,5701
2023-09-06T17:03:41.523Z,5670
2023-09-06T17:08:45.669Z,6816
2023-09-06T17:13:49.843Z,2696
2023-09-06T17:18:54.059Z,2000
2023-09-06T17:24:03.942Z,1675
2023-09-06T17:29:02.341Z,1320
2023-09-06T17:34:06.462Z,998
2023-09-06T17:39:10.621Z,920
2023-09-06T17:44:14.773Z,858
2023-09-06T17:49:19.172Z,618
2023-09-06T17:54:23.107Z,512
2023-09-06T17:59:27.238Z,401
2023-09-06T18:04:31.876Z,296
2023-09-06T18:09:35.583Z,205
2023-09-06T18:14:39.757Z,132
2023-09-06T18:19:43.909Z,77
2023-09-06T18:24:48.078Z,39
2023-09-06T18:29:52.242Z,16
2023-09-06T18:34:56.440Z,5
2023-09-06T18:40:00.544Z,1
2023-09-06T18:45:04.707Z,0
2023-09-06T18:50:08.906Z,0
2023-09-06T18:55:13.023Z,0
2023-09-06T19:00:17.194Z,0
2023-09-06T19:05:19.439Z,0
2023-09-06T19:10:23.649Z,0
2023-09-06T19:15:27.750Z,0
2023-09-06T19:20:31.944Z,0
2023-09-06T19:25:38.143Z,0
2023-09-06T19:30:40.547Z,0
2023-09-06T19:35:44.469Z,0
2023-09-06T19:40:48.610Z,0
2023-09-06T19:45:52.726Z,0
2023-09-06T19:50:56.873Z,0
2023-09-06T19:56:01.085Z,0
2023-09-06T20:01:05.340Z,0
2023-09-06T20:06:09.342Z,0
2023-09-06T20:11:13.637Z,0
2023-09-06T20:16:17.741Z,0
2023-09-06T20:21:21.829Z,0
2023-09-06T20:26:25.985Z,0
2023-09-06T20:31:30.163Z,0
2023-09-06T20:36:34.305Z,0
2023-09-06T20:41:38.540Z,0
2023-09-06T20:46:42.712Z,0
2023-09-06T20:51:46.801Z,0
2023-09-06T20:56:50.945Z,0
2023-09-06T21:01:55.175Z,0
2023-09-06T21:06:59.265Z,0
2023-09-06T21:12:03.432Z,0
2023-09-06T21:17:07.613Z,0
2023-09-06T21:22:11.751Z,0
2023-09-06T21:27:15.901Z,0
2023-09-06T21:32:20.085Z,0
2023-09-06T21:37:24.279Z,0
2023-09-06T21:42:28.384Z,0
2023-09-06T21:47:32.637Z,0
2023-09-06T21:52:36.707Z,0
2023-09-06T21:57:43.468Z,0
2023-09-06T22:02:45.179Z,0
2023-09-06T22:07:49.153Z,0
2023-09-06T22:12:53.384Z,0
2023-09-06T22:17:57.517Z,0
2023-09-06T22:23:01.677Z,0
2023-09-06T22:28:05.879Z,0
2023-09-06T22:33:09.988Z,0
2023-09-06T22:38:14.139Z,0
2023-09-06T22:43:18.357Z,0
2023-09-06T22:48:22.460Z,0
2023-09-06T22:53:26.636Z,0
2023-09-06T22:58:31.028Z,0
2023-09-06T23:03:35.055Z,0
2023-09-06T23:08:39.287Z,0
2023-09-06T23:13:43.296Z,0
2023-09-06T23:18:47.403Z,0
2023-09-06T23:23:51.557Z,0
2023-09-06T23:28:55.708Z,0
2023-09-06T23:33:59.970Z,0
2023-09-06T23:39:04.032Z,0
2023-09-06T23:44:08.217Z,0
2023-09-06T23:49:12.388Z,0
2023-09-06T23:54:16.497Z,0
2023-09-06T23:59:20.731Z,0
